Home > Products > Valid Products > TAF

000
FTUS45 KBOU 260409 AAA
TAFBJC
TAF AMD
KBJC 260409Z 2604/2624 28007KT P6SM SKC
     FM261000 26009G15KT P6SM FEW250
     FM261700 29010KT P6SM FEW140 SCT220
     FM262200 VRB05KT P6SM SCT120 BKN200=



000
FTUS45 KBOU 260409 AAA
TAFBJC
TAF AMD
KBJC 260409Z 2604/2624 28007KT P6SM SKC
     FM261000 26009G15KT P6SM FEW250
     FM261700 29010KT P6SM FEW140 SCT220
     FM262200 VRB05KT P6SM SCT120 BKN200=



000
FTUS45 KBOU 260403 AAC
TAFAPA
TAF AMD
KAPA 260403Z 2604/2624 24008KT P6SM SKC
     FM260800 18009KT P6SM FEW220
     FM261400 22010KT P6SM FEW150 SCT200
     FM261700 25013KT P6SM SCT150 BKN200
     FM262000 29011KT P6SM SCT080 BKN150=



000
FTUS45 KBOU 260403 AAC
TAFAPA
TAF AMD
KAPA 260403Z 2604/2624 24008KT P6SM SKC
     FM260800 18009KT P6SM FEW220
     FM261400 22010KT P6SM FEW150 SCT200
     FM261700 25013KT P6SM SCT150 BKN200
     FM262000 29011KT P6SM SCT080 BKN150=



000
FTUS45 KBOU 260401 AAC
TAFDEN
TAF AMD
KDEN 260401Z 2604/2706 21010KT P6SM FEW250
     FM261500 24013KT P6SM FEW150 SCT220
     FM261900 27012KT P6SM SCT080 BKN150
     FM262300 34008KT P6SM SCT080 BKN150=



000
FTUS45 KBOU 260401 AAC
TAFDEN
TAF AMD
KDEN 260401Z 2604/2706 21010KT P6SM FEW250
     FM261500 24013KT P6SM FEW150 SCT220
     FM261900 27012KT P6SM SCT080 BKN150
     FM262300 34008KT P6SM SCT080 BKN150=



000
FTUS45 KBOU 260205 AAB
TAFAPA
TAF AMD
KAPA 260205Z 2602/2624 20011KT P6SM SKC
     FM261000 18007KT P6SM FEW220
     FM261400 23010KT P6SM FEW120 SCT200
     FM261700 26014KT P6SM SCT120 BKN200
     FM262000 29010KT P6SM SCT080 BKN150=



000
FTUS45 KBOU 260205 AAB
TAFAPA
TAF AMD
KAPA 260205Z 2602/2624 20011KT P6SM SKC
     FM261000 18007KT P6SM FEW220
     FM261400 23010KT P6SM FEW120 SCT200
     FM261700 26014KT P6SM SCT120 BKN200
     FM262000 29010KT P6SM SCT080 BKN150=



000
FTUS45 KBOU 260202 AAB
TAFDEN
TAF AMD
KDEN 260202Z 2602/2706 12008KT P6SM SKC
     FM260300 16008KT P6SM SKC
     FM260500 20009KT P6SM FEW140 SCT250
     FM261500 24011KT P6SM FEW120 SCT200
     FM261900 27012KT P6SM SCT080 BKN150
     FM262300 34008KT P6SM SCT080 BKN150=



000
FTUS45 KBOU 260202 AAB
TAFDEN
TAF AMD
KDEN 260202Z 2602/2706 12008KT P6SM SKC
     FM260300 16008KT P6SM SKC
     FM260500 20009KT P6SM FEW140 SCT250
     FM261500 24011KT P6SM FEW120 SCT200
     FM261900 27012KT P6SM SCT080 BKN150
     FM262300 34008KT P6SM SCT080 BKN150=



000
FTUS45 KBOU 260031 AAA
TAFAPA
TAF AMD
KAPA 260031Z 2601/2624 15011KT P6SM SKC
     FM260400 18009KT P6SM FEW140 SCT250
     FM261600 22013KT P6SM FEW120 SCT200
     FM262000 28010KT P6SM SCT080 BKN150=



000
FTUS45 KBOU 260030 AAA
TAFDEN
TAF AMD
KDEN 260030Z 2601/2706 08009KT P6SM SKC
     FM260300 15008KT P6SM SKC
     FM260500 20010KT P6SM FEW140 SCT250
     FM261500 22012KT P6SM FEW120 SCT200
     FM261900 27010KT P6SM SCT080 BKN150
     FM262300 34007KT P6SM SCT080 BKN150=



000
FTUS45 KBOU 252329
TAFBJC
TAF
KBJC 252329Z 2600/2624 08007KT P6SM SKC
     FM260200 VRB04KT P6SM SKC
     FM260500 25008KT P6SM FEW140 SCT250
     FM261800 27012KT P6SM SCT140 BKN200=



000
FTUS45 KBOU 252329
TAFAPA
TAF
KAPA 252329Z 2600/2624 13012KT P6SM SKC
     FM260200 15008KT P6SM SKC
     FM260400 20009KT P6SM FEW140 SCT250
     FM261500 21014KT P6SM FEW120 SCT200
     FM262000 28010KT P6SM SCT080 BKN150=



000
FTUS45 KBOU 252329
TAFDEN
TAF
KDEN 252329Z 2600/2706 11010KT P6SM SKC
     FM260300 15008KT P6SM SKC
     FM260500 20010KT P6SM FEW140 SCT250
     FM261500 22012KT P6SM FEW120 SCT200
     FM261900 27010KT P6SM SCT080 BKN150
     FM262300 34007KT P6SM SCT080 BKN150=



000
FTUS45 KBOU 252100 AAB
TAFDEN
TAF AMD
KDEN 252100Z 2521/2624 11010KT P6SM SKC
     FM260300 15008KT P6SM SKC
     FM260500 20010KT P6SM FEW140 SCT250
     FM261500 21012KT P6SM FEW120 SCT200
     FM262000 30012KT P6SM SCT080 BKN150=



000
FTUS45 KBOU 251758 AAA
TAFDEN
TAF AMD
KDEN 251758Z 2518/2624 14008KT P6SM SKC
     FM252200 10008KT P6SM SKC
     FM260300 15008KT P6SM SKC
     FM260500 20010KT P6SM FEW140 SCT250
     FM261500 21012KT P6SM FEW120 SCT200
     FM262000 30012KT P6SM SCT080 BKN150=



000
FTUS45 KBOU 251758 AAA
TAFDEN
TAF AMD
KDEN 251758Z 2518/2624 14008KT P6SM SKC
     FM252200 10008KT P6SM SKC
     FM260300 15008KT P6SM SKC
     FM260500 20010KT P6SM FEW140 SCT250
     FM261500 21012KT P6SM FEW120 SCT200
     FM262000 30012KT P6SM SCT080 BKN150=



000
FTUS45 KBOU 251726
TAFAPA
TAF
KAPA 251726Z 2518/2618 VRB05KT P6SM SKC
     FM251900 13007KT P6SM SKC
     FM252300 08007KT P6SM SKC
     FM260200 15008KT P6SM SKC
     FM260400 20009KT P6SM FEW140 SCT250
     FM261500 21014KT P6SM FEW120 SCT200=



000
FTUS45 KBOU 251726
TAFBJC
TAF
KBJC 251726Z 2518/2618 12007KT P6SM SKC
     FM252100 08007KT P6SM SKC
     FM260200 VRB04KT P6SM SKC
     FM260500 26008KT P6SM FEW140 SCT250
     FM261100 28012KT P6SM SCT140 BKN200
     FM261500 24014KT P6SM FEW120 SCT200=



000
FTUS45 KBOU 251726
TAFDEN
TAF
KDEN 251726Z 2518/2624 18007KT P6SM SKC
     FM252300 10008KT P6SM SKC
     FM260300 15008KT P6SM SKC
     FM260500 20010KT P6SM FEW140 SCT250
     FM261500 21012KT P6SM FEW120 SCT200
     FM262000 30012KT P6SM SCT080 BKN150=



000
FTUS45 KBOU 251501 AAA
TAFDEN
TAF AMD
KDEN 251501Z 2515/2618 21010KT P6SM SKC
     FM251700 14007KT P6SM SKC
     FM252300 10009KT P6SM SKC
     FM260300 15008KT P6SM SKC
     FM260500 20010KT P6SM FEW140 SCT250=



000
FTUS45 KBOU 251138
TAFAPA
TAF
KAPA 251138Z 2512/2612 18007KT P6SM SKC
     FM251600 VRB05KT P6SM SKC
     FM251900 13007KT P6SM SKC
     FM252300 08007KT P6SM SKC
     FM260200 15008KT P6SM SKC
     FM260400 20009KT P6SM FEW140 SCT250=



000
FTUS45 KBOU 251138
TAFDEN
TAF
KDEN 251138Z 2512/2618 21007KT P6SM SKC
     FM251700 14007KT P6SM SKC
     FM252300 10009KT P6SM SKC
     FM260300 15008KT P6SM SKC
     FM260500 20010KT P6SM FEW140 SCT250=



000
FTUS45 KBOU 251138
TAFBJC
TAF
KBJC 251138Z 2512/2612 VRB04KT P6SM SKC
     FM251800 12007KT P6SM SKC
     FM252100 08007KT P6SM SKC
     FM260200 VRB04KT P6SM SKC
     FM260500 26008KT P6SM FEW140 SCT250
     FM261100 28014KT P6SM SCT140 BKN200=



000
FTUS45 KBOU 251138
TAFDEN
TAF
KDEN 251138Z 2512/2618 21007KT P6SM SKC
     FM251700 14007KT P6SM SKC
     FM252300 10009KT P6SM SKC
     FM260300 15008KT P6SM SKC
     FM260500 20010KT P6SM FEW140 SCT250=



000
FTUS45 KBOU 251138
TAFAPA
TAF
KAPA 251138Z 2512/2612 18007KT P6SM SKC
     FM251600 VRB05KT P6SM SKC
     FM251900 13007KT P6SM SKC
     FM252300 08007KT P6SM SKC
     FM260200 15008KT P6SM SKC
     FM260400 20009KT P6SM FEW140 SCT250=



000
FTUS45 KBOU 251138
TAFBJC
TAF
KBJC 251138Z 2512/2612 VRB04KT P6SM SKC
     FM251800 12007KT P6SM SKC
     FM252100 08007KT P6SM SKC
     FM260200 VRB04KT P6SM SKC
     FM260500 26008KT P6SM FEW140 SCT250
     FM261100 28014KT P6SM SCT140 BKN200=



000
FTUS45 KBOU 250901 AAA
TAFDEN
TAF AMD
KDEN 250901Z 2509/2612 22010KT P6SM SKC
     FM251600 VRB05KT P6SM SKC
     FM251900 14007KT P6SM SKC
     FM252200 10009KT P6SM SKC
     FM260200 15008KT P6SM SKC
     FM260400 20010KT P6SM FEW250=



000
FTUS45 KBOU 250521
TAFDEN
TAF
KDEN 250521Z 2506/2612 22008KT P6SM SKC
     FM251600 VRB05KT P6SM SKC
     FM251900 14007KT P6SM SKC
     FM252200 10009KT P6SM SKC
     FM260200 15008KT P6SM SKC
     FM260400 20010KT P6SM FEW250=



000
FTUS45 KBOU 250521
TAFBJC
TAF
KBJC 250521Z 2506/2606 27008KT P6SM SKC
     FM251500 VRB05KT P6SM SKC
     FM251800 09007KT P6SM SKC
     FM260200 VRB04KT P6SM SKC=



000
FTUS45 KBOU 250521
TAFAPA
TAF
KAPA 250521Z 2506/2606 22007KT P6SM SKC
     FM251700 VRB05KT P6SM SKC
     FM252100 10008KT P6SM SKC
     FM260200 16008KT P6SM SKC
     FM260400 21009KT P6SM FEW250=



000
FTUS45 KBOU 250320 AAA
TAFAPA
TAF AMD
KAPA 250320Z 2503/2524 15007KT P6SM FEW200
     FM250600 20010KT P6SM SKC
     FM251700 VRB05KT P6SM SKC
     FM252100 10008KT P6SM SCT200=



000
FTUS45 KBOU 250304 AAB
TAFDEN
TAF AMD
KDEN 250304Z 2503/2606 17011KT P6SM SKC
     FM250600 20010KT P6SM SKC
     FM251600 VRB05KT P6SM SKC
     FM251900 14008KT P6SM SKC
     FM252100 10008KT P6SM SKC
     FM260200 20010KT P6SM FEW200=



000
FTUS45 KBOU 250116 AAA
TAFDEN
TAF AMD
KDEN 250116Z 2501/2606 12008KT P6SM SKC
     FM250300 15008KT P6SM SKC
     FM250600 20010KT P6SM SKC
     FM251600 VRB05KT P6SM SKC
     FM251900 14008KT P6SM SKC
     FM252100 10008KT P6SM SKC
     FM260200 20010KT P6SM FEW200=



000
FTUS45 KBOU 242324
TAFBJC
TAF
KBJC 242324Z 2500/2524 09005KT P6SM FEW200
     FM250200 23007KT P6SM FEW200
     FM251700 14005KT P6SM SKC=



000
FTUS45 KBOU 242324
TAFAPA
TAF
KAPA 242324Z 2500/2524 11009KT P6SM FEW200
     FM250600 20010KT P6SM SKC
     FM251700 VRB05KT P6SM SKC
     FM252100 10008KT P6SM SCT200=



000
FTUS45 KBOU 242324
TAFDEN
TAF
KDEN 242324Z 2500/2606 10010KT P6SM FEW200
     FM250400 16008KT P6SM SKC
     FM250600 20010KT P6SM SKC
     FM251600 VRB05KT P6SM SKC
     FM251900 14008KT P6SM SCT200
     FM252100 10008KT P6SM SCT200
     FM260200 20010KT P6SM SCT200=



000
FTUS45 KBOU 242304 AAB
TAFDEN
TAF AMD
KDEN 242304Z 2423/2524 10010KT P6SM FEW150 SCT200
     FM250400 16008KT P6SM SCT200
     FM250600 20010KT P6SM SKC
     FM251700 VRB05KT P6SM SKC=



000
FTUS45 KBOU 242014 AAA
TAFDEN
TAF AMD
KDEN 242014Z 2420/2524 15007KT P6SM FEW150 SCT200
     FM250000 11009KT P6SM FEW180
     FM250600 20010KT P6SM SKC
     FM251700 VRB05KT P6SM SKC=



000
FTUS45 KBOU 241733
TAFDEN
TAF
KDEN 241733Z 2418/2524 25008KT P6SM SCT150 BKN200
     FM241900 05008KT P6SM FEW150 SCT200
     FM250000 11009KT P6SM FEW180
     FM250600 20010KT P6SM SKC
     FM251700 VRB05KT P6SM SKC=



000
FTUS45 KBOU 241733
TAFAPA
TAF
KAPA 241733Z 2418/2518 23007KT P6SM FEW150 BKN200
     FM241900 05008KT P6SM FEW150 SCT200
     FM250000 11009KT P6SM FEW180
     FM250600 20010KT P6SM SKC
     FM251700 VRB05KT P6SM SKC=



000
FTUS45 KBOU 241733
TAFBJC
TAF
KBJC 241733Z 2418/2518 VRB05KT P6SM FEW110 BKN200
     FM242000 09005KT P6SM FEW100 SCT200
     FM250200 23007KT P6SM FEW200
     FM250600 VRB05KT P6SM SKC=



000
FTUS45 KBOU 241457 AAA
TAFBJC
TAF AMD
KBJC 241457Z 2415/2512 25007KT P6SM FEW120 BKN200
     FM241800 VRB05KT P6SM SCT110 SCT200
     FM250400 23007KT P6SM FEW200=



000
FTUS45 KBOU 241457 AAA
TAFDEN
TAF AMD
KDEN 241457Z 2415/2518 19008KT P6SM FEW120 BKN180
     FM241700 15008KT P6SM SCT150
     FM250000 10009KT P6SM SCT200
     FM250300 20010KT P6SM FEW200=



000
FTUS45 KBOU 241457 AAA
TAFAPA
TAF AMD
KAPA 241457Z 2415/2512 19008KT P6SM FEW120 BKN200
     FM241700 15007KT P6SM SCT220
     FM242200 10010KT P6SM FEW200
     FM250300 17010KT P6SM FEW200=



000
FTUS45 KBOU 241137
TAFDEN
TAF
KDEN 241137Z 2412/2518 19008KT P6SM FEW120 BKN220
     FM241700 15007KT P6SM SCT220
     FM242300 10009KT P6SM SCT200
     FM250300 20010KT P6SM FEW200=



000
FTUS45 KBOU 241137
TAFBJC
TAF
KBJC 241137Z 2412/2512 24007KT P6SM FEW120 BKN200
     FM241800 VRB04KT P6SM SCT110 SCT200
     FM250400 23007KT P6SM FEW200=



000
FTUS45 KBOU 241137
TAFAPA
TAF
KAPA 241137Z 2412/2512 19008KT P6SM FEW120 BKN200
     FM241700 15009KT P6SM SCT220
     FM242200 08009KT P6SM FEW200
     FM250300 19010KT P6SM FEW200=



000
FTUS45 KBOU 240900 AAA
TAFDEN
TAF AMD
KDEN 240900Z 2409/2512 19010KT P6SM FEW120 BKN220
     FM241700 16009KT P6SM SCT220
     FM242100 11010KT P6SM FEW200
     FM250300 20010KT P6SM FEW200=



000
FTUS45 KBOU 240842 AAB
TAFBJC
TAF AMD
KBJC 240842Z 2409/2506 29011G19KT P6SM FEW120 BKN200
      TEMPO 2409/2413 29018G28KT
     FM241300 28014KT P6SM FEW100 BKN200
     FM241600 VRB04KT P6SM SCT110 SCT200
     FM250400 23007KT P6SM FEW200=



000
FTUS45 KBOU 240748 AAA
TAFBJC
TAF AMD
KBJC 240748Z 2408/2506 24010KT P6SM FEW120 BKN200
      TEMPO 2408/2412 25018G28KT
     FM241200 27014KT P6SM FEW100 BKN200
     FM241600 VRB04KT P6SM SCT110 SCT200
     FM250400 23007KT P6SM FEW200=



000
FTUS45 KBOU 240532
TAFAPA
TAF
KAPA 240532Z 2406/2506 20010KT P6SM FEW110 BKN200
     FM241700 15009KT P6SM SCT220
     FM242100 08009KT P6SM FEW200
     FM250300 20010KT P6SM FEW200=



000
FTUS45 KBOU 240532
TAFDEN
TAF
KDEN 240532Z 2406/2512 21013KT P6SM FEW120 BKN220
     FM241700 16009KT P6SM SCT220
     FM242100 11010KT P6SM FEW200
     FM250300 20010KT P6SM FEW200=



000
FTUS45 KBOU 240532
TAFBJC
TAF
KBJC 240532Z 2406/2506 22005KT P6SM FEW120 BKN200
     FM240900 29006KT P6SM FEW100 BKN200
     FM241600 VRB04KT P6SM SCT110 SCT200
     FM250400 23007KT P6SM FEW200=



000
FTUS45 KBOU 240418 AAB
TAFDEN
TAF AMD
KDEN 240418Z 2404/2506 21013KT P6SM FEW120 BKN220
     FM241700 VRB04KT P6SM SCT220
     FM242000 10007KT P6SM FEW200
     FM250200 21010KT P6SM FEW200=



000
FTUS45 KBOU 240248 AAA
TAFDEN
TAF AMD
KDEN 240248Z 2403/2506 18011KT P6SM FEW120 BKN220
     FM240600 21011KT P6SM FEW110 BKN200
     FM241700 VRB04KT P6SM SCT200
     FM242000 10007KT P6SM FEW200
     FM250200 21010KT P6SM FEW200=



000
FTUS45 KBOU 240248 AAA
TAFDEN
TAF AMD
KDEN 240248Z 2403/2506 18011KT P6SM FEW120 BKN220
     FM240600 21011KT P6SM FEW110 BKN200
     FM241700 VRB04KT P6SM SCT200
     FM242000 10007KT P6SM FEW200
     FM250200 21010KT P6SM FEW200=



000
FTUS45 KBOU 232332
TAFAPA
TAF
KAPA 232332Z 2400/2424 16007KT P6SM FEW140 SCT220
     FM240600 22010KT P6SM FEW110 BKN200
     FM241500 20008KT P6SM SCT200
     FM242000 VRB05KT P6SM SCT200=



000
FTUS45 KBOU 232332
TAFBJC
TAF
KBJC 232332Z 2400/2424 VRB05KT P6SM FEW120 SCT220
     FM240300 25008KT P6SM FEW120 BKN200
     FM240900 VRB05KT P6SM FEW100 BKN200=



000
FTUS45 KBOU 232332
TAFDEN
TAF
KDEN 232332Z 2400/2506 17007KT P6SM FEW120 BKN220
     FM240600 24010KT P6SM FEW110 BKN200
     FM241500 20008KT P6SM SCT200
     FM242200 VRB05KT P6SM FEW200
     FM250200 21010KT P6SM FEW200=



000
FTUS45 KBOU 232100 AAB
TAFDEN
TAF AMD
KDEN 232100Z 2321/2424 26008KT P6SM FEW120 SCT220
     FM240200 18007KT P6SM FEW120 SCT220
     FM240700 24010KT P6SM FEW110 BKN200
     FM241500 20008KT P6SM SCT200
     FM242200 VRB05KT P6SM FEW200=



000
FTUS45 KBOU 232019 AAA
TAFAPA
TAF AMD
KAPA 232019Z 2320/2418 32007KT P6SM FEW140 SCT220
     FM240100 18007KT P6SM FEW120 SCT220
     FM240600 22010KT P6SM FEW110 BKN200
     FM241500 20008KT P6SM SCT200=



000
FTUS45 KBOU 231926 AAA
TAFDEN
TAF AMD
KDEN 231926Z 2319/2424 27010KT P6SM FEW120 SCT220
     FM240200 18007KT P6SM FEW120 SCT220
     FM240700 24010KT P6SM FEW110 BKN200
     FM241500 20008KT P6SM SCT200
     FM242200 VRB05KT P6SM FEW200=



000
FTUS45 KBOU 231926 AAA
TAFDEN
TAF AMD
KDEN 231926Z 2319/2424 27010KT P6SM FEW120 SCT220
     FM240200 18007KT P6SM FEW120 SCT220
     FM240700 24010KT P6SM FEW110 BKN200
     FM241500 20008KT P6SM SCT200
     FM242200 VRB05KT P6SM FEW200=



000
FTUS45 KBOU 231825 AAA
TAFBJC
TAF AMD
KBJC 231825Z 2318/2418 25008G12KT P6SM SCT120 BKN250
     FM232000 32008KT P6SM FEW120 SCT220
     FM240200 21010KT P6SM FEW120 BKN200
     FM240900 VRB05KT P6SM FEW100 BKN200=



000
FTUS45 KBOU 231825 AAA
TAFBJC
TAF AMD
KBJC 231825Z 2318/2418 25008G12KT P6SM SCT120 BKN250
     FM232000 32008KT P6SM FEW120 SCT220
     FM240200 21010KT P6SM FEW120 BKN200
     FM240900 VRB05KT P6SM FEW100 BKN200=



000
FTUS45 KBOU 231732
TAFDEN
TAF
KDEN 231732Z 2318/2424 21009KT P6SM FEW120 SCT220
     FM240000 18007KT P6SM FEW120 SCT220
     FM240600 24010KT P6SM FEW110 BKN200
     FM241500 20008KT P6SM SCT200
     FM242200 VRB05KT P6SM FEW200=



000
FTUS45 KBOU 231732
TAFBJC
TAF
KBJC 231732Z 2318/2418 28008G15KT P6SM SCT120 BKN250
     FM232000 32008KT P6SM FEW120 SCT220
     FM240200 21010KT P6SM FEW120 BKN200
     FM240900 VRB05KT P6SM FEW100 BKN200=



000
FTUS45 KBOU 231732
TAFAPA
TAF
KAPA 231732Z 2318/2418 22007KT P6SM FEW140 SCT220
     FM240000 18007KT P6SM FEW120 SCT220
     FM240600 22010KT P6SM FEW110 BKN200
     FM241500 20008KT P6SM SCT200=



000
FTUS45 KBOU 231454 AAA
TAFAPA
TAF AMD
KAPA 231454Z 2315/2412 VRB05KT P6SM FEW140 SCT220
     FM231900 18007KT P6SM FEW120 SCT220
     FM240700 21008KT P6SM FEW120 BKN200=



000
FTUS45 KBOU 231454 AAA
TAFDEN
TAF AMD
KDEN 231454Z 2315/2418 VRB05KT P6SM FEW100 SCT220
     FM231900 21006KT P6SM FEW120 SCT220
     FM232100 33006KT P6SM FEW120 SCT220
     FM240000 06008KT P6SM FEW120 SCT220
     FM240600 21010KT P6SM FEW130 BKN200
     FM241500 17006KT P6SM FEW200=



000
FTUS45 KBOU 231454 AAA
TAFBJC
TAF AMD
KBJC 231454Z 2315/2412 VRB05KT P6SM FEW140 SCT220
     FM231900 32008KT P6SM FEW120 SCT220
     FM240200 21010KT P6SM FEW120 BKN200
     FM240900 VRB05KT P6SM FEW100 BKN200=



000
FTUS45 KBOU 231454 AAA
TAFAPA
TAF AMD
KAPA 231454Z 2315/2412 VRB05KT P6SM FEW140 SCT220
     FM231900 18007KT P6SM FEW120 SCT220
     FM240700 21008KT P6SM FEW120 BKN200=



000
FTUS45 KBOU 231454 AAA
TAFBJC
TAF AMD
KBJC 231454Z 2315/2412 VRB05KT P6SM FEW140 SCT220
     FM231900 32008KT P6SM FEW120 SCT220
     FM240200 21010KT P6SM FEW120 BKN200
     FM240900 VRB05KT P6SM FEW100 BKN200=



000
FTUS45 KBOU 231454 AAA
TAFDEN
TAF AMD
KDEN 231454Z 2315/2418 VRB05KT P6SM FEW100 SCT220
     FM231900 21006KT P6SM FEW120 SCT220
     FM232100 33006KT P6SM FEW120 SCT220
     FM240000 06008KT P6SM FEW120 SCT220
     FM240600 21010KT P6SM FEW130 BKN200
     FM241500 17006KT P6SM FEW200=



000
FTUS45 KBOU 231120
TAFAPA
TAF
KAPA 231120Z 2312/2412 17006KT P6SM FEW220
     FM231400 VRB05KT P6SM FEW140 SCT220
     FM231900 13007KT P6SM FEW120 SCT220
     FM240200 20008KT P6SM FEW120 BKN220
     FM240700 21008KT P6SM FEW120 BKN200=



000
FTUS45 KBOU 231120
TAFDEN
TAF
KDEN 231120Z 2312/2418 22007KT P6SM FEW100 SCT220
     FM231500 VRB05KT P6SM FEW120 SCT220
     FM231900 13006KT P6SM FEW120 SCT220
     FM240200 19008KT P6SM FEW120 SCT220
     FM240600 21010KT P6SM FEW130 BKN200
     FM241500 17006KT P6SM FEW200=



000
FTUS45 KBOU 231120
TAFBJC
TAF
KBJC 231120Z 2312/2412 24004KT P6SM SCT200
     FM231500 VRB05KT P6SM FEW140 SCT220
     FM231800 11006KT P6SM FEW120 SCT220
     FM240200 25010KT P6SM FEW120 BKN200=



000
FTUS45 KBOU 230906 AAB
TAFAPA
TAF AMD
KAPA 230906Z 2309/2406 13003KT P6SM SCT220
     FM231000 23005KT P6SM SCT200
     FM231600 VRB05KT P6SM FEW140 SCT220
     FM231900 10007KT P6SM FEW120 SCT220
     FM240200 18008KT P6SM FEW120 BKN220=



000
FTUS45 KBOU 230906 AAB
TAFBJC
TAF AMD
KBJC 230906Z 2309/2406 24004KT P6SM SCT200
     FM231600 VRB05KT P6SM FEW140 SCT220
     FM231900 09007KT P6SM FEW120 SCT220
     FM240200 24006KT P6SM FEW120 BKN220=



000
FTUS45 KBOU 230906 AAB
TAFDEN
TAF AMD
KDEN 230906Z 2309/2412 24008KT P6SM FEW100 SCT220
     FM231500 VRB05KT P6SM FEW120 BKN220
     FM231900 11006KT P6SM FEW120 SCT220
     FM240200 19008KT P6SM FEW120 SCT220
     FM240600 21010KT P6SM FEW130 BKN220=



000
FTUS45 KBOU 230630 AAA
TAFDEN
TAF AMD
KDEN 230630Z 2307/2412 22008KT P6SM FEW100 SCT200
     FM231500 VRB05KT P6SM FEW120 BKN220
     FM231900 08007KT P6SM FEW120 SCT220
     FM240200 19008KT P6SM FEW120 SCT220
     FM240500 21012KT P6SM FEW130 BKN220=



000
FTUS45 KBOU 230630 AAA
TAFAPA
TAF AMD
KAPA 230630Z 2307/2406 14004KT P6SM BKN140
     FM230700 24006KT P6SM FEW140 BKN220
     FM231600 VRB05KT P6SM FEW140 BKN220
     FM231900 09007KT P6SM FEW120 SCT220
     FM240200 18008KT P6SM FEW120 BKN220=



000
FTUS45 KBOU 230630 AAA
TAFBJC
TAF AMD
KBJC 230630Z 2307/2406 33013KT P6SM FEW120 BKN220
     FM230800 28008KT P6SM FEW120 BKN220
     FM231600 VRB05KT P6SM FEW140 BKN220
     FM231900 09007KT P6SM FEW120 SCT220
     FM240200 24006KT P6SM FEW120 BKN220=



000
FTUS45 KBOU 230527
TAFAPA
TAF
KAPA 230527Z 2306/2406 14004KT P6SM BKN140
     FM230700 24006KT P6SM FEW140 BKN220
     FM231600 VRB05KT P6SM FEW140 BKN220
     FM231900 09007KT P6SM FEW120 SCT220
     FM240200 18008KT P6SM FEW120 BKN220=



000
FTUS45 KBOU 230527
TAFBJC
TAF
KBJC 230527Z 2306/2406 27010KT P6SM FEW120 BKN220
     FM231600 VRB05KT P6SM FEW140 BKN220
     FM231900 09007KT P6SM FEW120 SCT220
     FM240200 24006KT P6SM FEW120 BKN220=



000
FTUS45 KBOU 230527
TAFDEN
TAF
KDEN 230527Z 2306/2412 22008KT P6SM FEW100 SCT200
     FM231500 VRB05KT P6SM FEW120 BKN220
     FM231900 08007KT P6SM FEW120 SCT220
     FM240200 19008KT P6SM FEW120 SCT220
     FM240500 21012KT P6SM FEW130 BKN220=



    US Dept of Commerce
    National Oceanic and Atmospheric Administration
    National Weather Service
    1325 East West Highway
    Silver Spring, MD 20910
    Page Author: NWS Internet Services Team
Disclaimer
Information Quality
Credits
Glossary
Privacy Policy
Freedom of Information Act (FOIA)
About Us
Career Opportunities